createdAt,value
2023-01-26T00:00:20.053Z,77.95
2023-01-26T00:05:26.212Z,77.46
2023-01-26T00:10:30.215Z,75.94
2023-01-26T00:15:34.915Z,74.72
2023-01-26T00:20:40.452Z,74.34
2023-01-26T00:25:45.723Z,75.25
2023-01-26T00:30:50.350Z,74.44
2023-01-26T00:35:59.244Z,74.11
2023-01-26T00:41:04.902Z,73.64
2023-01-26T00:46:08.952Z,73.92
2023-01-26T00:51:14.601Z,73.48
2023-01-26T00:56:18.910Z,74.15
2023-01-26T01:01:22.952Z,73.64
2023-01-26T01:06:28.747Z,74.37
2023-01-26T01:11:34.236Z,74.21
2023-01-26T01:16:38.590Z,74.46
2023-01-26T01:21:45.567Z,73.99
2023-01-26T01:26:50.629Z,74.22
2023-01-26T01:31:55.744Z,73.69
2023-01-26T01:37:01.881Z,73.72
2023-01-26T01:42:06.345Z,74.00
2023-01-26T01:47:20.883Z,73.63
2023-01-26T01:52:30.584Z,72.94
2023-01-26T01:57:45.358Z,73.55
2023-01-26T02:03:09.102Z,74.61
2023-01-26T02:08:15.889Z,74.78
2023-01-26T02:13:22.365Z,75.27
2023-01-26T02:18:26.601Z,74.23
2023-01-26T02:23:49.992Z,72.57
2023-01-26T02:28:56.113Z,73.71
2023-01-26T02:34:00.169Z,73.18
2023-01-26T02:39:23.776Z,74.49
2023-01-26T02:44:31.183Z,75.13
2023-01-26T02:49:52.112Z,75.99
2023-01-26T02:55:15.847Z,76.57
2023-01-26T03:00:23.671Z,75.95
2023-01-26T03:05:29.476Z,75.45
2023-01-26T03:10:34.747Z,75.53
2023-01-26T03:15:48.208Z,75.91
2023-01-26T03:21:09.976Z,75.33
2023-01-26T03:26:31.549Z,75.46
2023-01-26T03:31:37.143Z,75.91
2023-01-26T03:36:41.257Z,76.85
2023-01-26T03:42:07.325Z,76.12
2023-01-26T03:47:30.967Z,75.76
2023-01-26T03:52:52.768Z,75.58
2023-01-26T03:57:56.948Z,75.71
2023-01-26T04:03:20.229Z,76.05
2023-01-26T04:08:24.789Z,76.60
2023-01-26T04:13:51.410Z,76.54
2023-01-26T04:19:20.007Z,76.64
2023-01-26T04:24:24.727Z,77.44
2023-01-26T04:29:34.106Z,77.39
2023-01-26T04:34:39.807Z,77.53
2023-01-26T04:39:51.763Z,77.24
2023-01-26T04:44:56.422Z,78.24
2023-01-26T04:50:04.338Z,78.05
2023-01-26T04:55:10.131Z,77.49
2023-01-26T05:00:16.128Z,77.80
2023-01-26T05:05:22.926Z,77.90
2023-01-26T05:10:27.727Z,77.50
2023-01-26T05:15:41.898Z,77.26
2023-01-26T05:20:54.933Z,77.56
2023-01-26T05:26:08.238Z,77.20
2023-01-26T05:31:44.194Z,76.84
2023-01-26T05:36:49.858Z,77.04
2023-01-26T05:41:56.008Z,77.48
2023-01-26T05:47:13.221Z,76.94
2023-01-26T05:52:23.079Z,76.41
2023-01-26T05:57:29.601Z,75.80
2023-01-26T06:02:41.675Z,75.98
2023-01-26T06:07:51.486Z,76.08
2023-01-26T06:13:02.678Z,76.25
2023-01-26T06:18:27.070Z,76.74
2023-01-26T06:23:35.247Z,76.98
2023-01-26T06:28:41.117Z,77.74
2023-01-26T06:33:46.523Z,77.24
2023-01-26T06:38:56.393Z,77.54
2023-01-26T06:44:01.711Z,77.51
2023-01-26T06:49:09.253Z,78.05
2023-01-26T06:54:17.157Z,78.38
2023-01-26T06:59:44.634Z,78.68
2023-01-26T07:05:11.136Z,78.79
2023-01-26T07:10:17.831Z,78.97
2023-01-26T07:15:21.809Z,78.89
2023-01-26T07:20:26.107Z,79.00
2023-01-26T07:25:33.245Z,78.80
2023-01-26T07:30:37.342Z,78.10
2023-01-26T07:35:41.523Z,78.09
2023-01-26T07:40:47.224Z,77.78
2023-01-26T07:45:53.064Z,77.05
2023-01-26T07:51:00.159Z,76.15
2023-01-26T07:56:11.303Z,74.54
2023-01-26T08:01:16.780Z,74.80
2023-01-26T08:06:22.831Z,75.12
2023-01-26T08:11:29.044Z,75.08
2023-01-26T08:16:33.116Z,74.41
2023-01-26T08:21:37.840Z,74.89
2023-01-26T08:26:43.624Z,75.39
2023-01-26T08:31:48.573Z,75.07
2023-01-26T08:36:52.624Z,75.65
2023-01-26T08:41:58.249Z,75.46
2023-01-26T08:47:02.605Z,75.06
2023-01-26T08:52:06.807Z,76.33
2023-01-26T08:57:13.277Z,75.55
2023-01-26T09:02:19.131Z,75.40
2023-01-26T09:07:24.133Z,75.09
2023-01-26T09:12:30.319Z,73.70
2023-01-26T09:17:37.421Z,74.05
2023-01-26T09:22:43.357Z,74.54
2023-01-26T09:27:50.015Z,74.01
2023-01-26T09:32:54.348Z,74.40
2023-01-26T09:37:58.686Z,75.85
2023-01-26T09:43:19.123Z,76.54
2023-01-26T09:48:35.812Z,77.82
2023-01-26T09:53:52.267Z,78.31
2023-01-26T09:59:02.273Z,78.83
2023-01-26T10:04:13.009Z,79.35
2023-01-26T10:09:24.033Z,80.12
2023-01-26T10:14:36.958Z,80.04
2023-01-26T10:19:47.053Z,80.72
2023-01-26T10:24:53.336Z,80.59
2023-01-26T10:29:59.084Z,81.42
2023-01-26T10:35:03.816Z,81.37
2023-01-26T10:40:09.787Z,81.65
2023-01-26T10:45:31.041Z,81.36
2023-01-26T10:50:36.149Z,82.30
2023-01-26T10:55:41.627Z,82.13
2023-01-26T11:00:57.640Z,83.13
2023-01-26T11:06:08.227Z,82.56
2023-01-26T11:11:27.195Z,82.80
2023-01-26T11:16:33.243Z,82.25
2023-01-26T11:21:43.436Z,82.20
2023-01-26T11:27:16.654Z,80.28
2023-01-26T11:32:31.727Z,78.65
2023-01-26T11:37:45.671Z,78.78
2023-01-26T11:42:59.914Z,78.02
2023-01-26T11:48:22.957Z,76.68
2023-01-26T11:53:45.873Z,76.25
2023-01-26T11:58:55.323Z,75.99
2023-01-26T12:04:00.676Z,76.86
2023-01-26T12:09:18.830Z,76.05
2023-01-26T12:14:26.992Z,76.43
2023-01-26T12:19:43.771Z,76.95
2023-01-26T12:25:18.658Z,76.43
2023-01-26T12:30:38.030Z,77.10
2023-01-26T12:36:05.423Z,76.60
2023-01-26T12:41:18.859Z,76.43
2023-01-26T12:46:27.003Z,77.46
2023-01-26T12:51:38.995Z,77.57
2023-01-26T12:56:50.384Z,77.29
2023-01-26T13:01:54.872Z,77.48
2023-01-26T13:07:34.590Z,76.35
2023-01-26T13:12:52.503Z,76.19
2023-01-26T13:18:02.238Z,76.20
2023-01-26T13:23:42.767Z,76.92
2023-01-26T13:28:47.413Z,77.60
2023-01-26T13:33:54.208Z,77.26
2023-01-26T13:39:04.979Z,78.02
2023-01-26T13:44:15.797Z,79.01
2023-01-26T13:49:27.884Z,79.61
2023-01-26T13:54:34.608Z,79.08
2023-01-26T13:59:50.355Z,79.78
2023-01-26T14:04:58.915Z,80.17
2023-01-26T14:10:05.936Z,81.27
2023-01-26T14:15:24.445Z,82.28
2023-01-26T14:20:31.212Z,83.26
2023-01-26T14:25:39.516Z,83.69
2023-01-26T14:30:45.303Z,83.81
2023-01-26T14:35:58.288Z,83.01
2023-01-26T14:41:04.470Z,82.87
2023-01-26T14:46:18.640Z,82.61
2023-01-26T14:51:26.675Z,82.24
2023-01-26T14:56:36.880Z,81.84
2023-01-26T15:01:43.053Z,81.55
2023-01-26T15:06:47.324Z,82.11
2023-01-26T15:12:18.235Z,82.19
2023-01-26T15:17:31.964Z,82.98
2023-01-26T15:22:36.537Z,82.82
2023-01-26T15:27:42.512Z,83.81
2023-01-26T15:32:47.409Z,83.91
2023-01-26T15:38:00.569Z,83.83
2023-01-26T15:43:14.366Z,84.38
2023-01-26T15:48:19.378Z,84.68
2023-01-26T15:53:26.615Z,83.71
2023-01-26T15:58:35.084Z,84.27
2023-01-26T16:03:41.696Z,85.61
2023-01-26T16:08:46.196Z,85.61
2023-01-26T16:14:02.836Z,86.18
2023-01-26T16:19:09.189Z,85.41
2023-01-26T16:24:13.889Z,84.68
2023-01-26T16:29:20.146Z,84.76
2023-01-26T16:34:24.822Z,84.22
2023-01-26T16:39:29.111Z,84.31
2023-01-26T16:44:37.231Z,86.05
2023-01-26T16:49:42.371Z,87.26
2023-01-26T16:54:50.546Z,87.58
2023-01-26T16:59:59.471Z,87.82
2023-01-26T17:05:04.354Z,87.20
2023-01-26T17:10:10.139Z,88.38
2023-01-26T17:15:22.573Z,87.38
2023-01-26T17:20:27.804Z,89.09
2023-01-26T17:25:32.438Z,89.12
2023-01-26T17:30:39.274Z,88.75
2023-01-26T17:35:43.716Z,88.46
2023-01-26T17:40:56.637Z,87.40
2023-01-26T17:46:08.439Z,86.02
2023-01-26T17:51:14.892Z,86.75
2023-01-26T17:56:21.394Z,88.41
2023-01-26T18:01:28.453Z,87.47
2023-01-26T18:06:34.698Z,89.17
2023-01-26T18:11:40.577Z,89.07
2023-01-26T18:16:47.663Z,90.58
2023-01-26T18:21:55.244Z,90.67
2023-01-26T18:27:01.707Z,89.10
2023-01-26T18:32:07.817Z,89.35
2023-01-26T18:37:12.825Z,89.31
2023-01-26T18:42:17.347Z,89.62
2023-01-26T18:47:23.440Z,88.18
2023-01-26T18:52:30.791Z,88.83
2023-01-26T18:57:35.532Z,87.85
2023-01-26T19:02:41.092Z,87.72
2023-01-26T19:07:45.682Z,88.55
2023-01-26T19:12:51.654Z,88.49
2023-01-26T19:17:58.442Z,89.01
2023-01-26T19:23:03.936Z,87.85
2023-01-26T19:28:07.954Z,89.54
2023-01-26T19:33:29.039Z,88.89
2023-01-26T19:38:36.582Z,87.97
2023-01-26T19:43:42.006Z,89.79
2023-01-26T19:48:47.648Z,89.44
2023-01-26T19:53:55.401Z,91.31
2023-01-26T19:59:01.354Z,92.02
2023-01-26T20:04:09.762Z,92.26
2023-01-26T20:09:14.462Z,90.13
2023-01-26T20:14:19.798Z,89.75
2023-01-26T20:19:26.391Z,89.97
2023-01-26T20:24:32.407Z,89.38
2023-01-26T20:29:37.274Z,90.09
2023-01-26T20:34:47.217Z,88.70
2023-01-26T20:39:52.140Z,89.83
2023-01-26T20:44:59.005Z,90.68
2023-01-26T20:50:04.794Z,89.90
2023-01-26T20:55:11.760Z,89.65
2023-01-26T21:00:17.679Z,90.01
2023-01-26T21:05:23.316Z,88.94
2023-01-26T21:10:28.090Z,89.91
2023-01-26T21:15:33.057Z,91.03
2023-01-26T21:20:40.153Z,90.41
2023-01-26T21:25:45.829Z,90.51
2023-01-26T21:31:00.718Z,90.60
2023-01-26T21:36:09.402Z,91.48
2023-01-26T21:41:32.738Z,90.60
2023-01-26T21:46:37.137Z,89.84
2023-01-26T21:52:00.670Z,89.96
2023-01-26T21:57:27.904Z,88.87
2023-01-26T22:02:32.625Z,88.68
2023-01-26T22:07:38.558Z,90.41
2023-01-26T22:12:42.932Z,91.08
2023-01-26T22:17:48.071Z,90.52
2023-01-26T22:22:54.132Z,89.58
2023-01-26T22:27:58.219Z,89.84
2023-01-26T22:33:02.519Z,89.67
2023-01-26T22:38:09.402Z,89.46
2023-01-26T22:43:13.707Z,88.69
2023-01-26T22:48:18.830Z,89.76
2023-01-26T22:53:24.750Z,89.33
2023-01-26T22:58:29.706Z,91.06
2023-01-26T23:03:34.903Z,90.61
2023-01-26T23:08:41.172Z,92.38
2023-01-26T23:13:47.139Z,92.70
2023-01-26T23:18:51.651Z,92.78
2023-01-26T23:23:57.676Z,92.50
2023-01-26T23:29:01.783Z,92.05
2023-01-26T23:34:08.001Z,90.49
2023-01-26T23:39:13.489Z,91.04
2023-01-26T23:44:17.594Z,89.49
2023-01-26T23:49:22.292Z,88.83
2023-01-26T23:54:27.880Z,88.38
2023-01-26T23:59:32.367Z,88.96
